Time;durP1;ratioP1;P1;durP2;ratioP2;P2;SDS_P1;SDS_P2;PMS_P1;PMS_P2;Temp;Humidity;BMP_temperature;BMP_pressure;BME280_temperature;BME280_humidity;BME280_pressure;Samples;Min_cycle;Max_cycle;Signal;HPM_P1;HPM_P2
2021/01/14 00:01:22;;;;;;;16.75;5.78;;;;;;;3.95;75.68;100185.66;4942921;29;20100;-86
2021/01/14 00:03:50;;;;;;;10.45;5.97;;;;;;;4.05;75.18;100184.56;4942313;28;20067;-84
2021/01/14 00:06:20;;;;;;;11.52;5.97;;;;;;;4.01;75.28;100181.16;4948394;28;20052;-85
2021/01/14 00:08:47;;;;;;;15.25;6.50;;;;;;;4.05;74.77;100179.34;4928505;29;20047;-86
2021/01/14 00:11:16;;;;;;;13.63;6.38;;;;;;;3.99;75.53;100184.72;4941781;29;20036;-85
2021/01/14 00:13:42;;;;;;;13.88;6.47;;;;;;;3.96;76.07;100175.16;4923539;29;20040;-85
2021/01/14 00:16:08;;;;;;;15.27;6.63;;;;;;;3.98;75.40;100180.38;4923090;29;20098;-85
2021/01/14 00:18:36;;;;;;;12.27;6.07;;;;;;;4.03;75.91;100189.00;4937300;29;20071;-85
2021/01/14 00:21:02;;;;;;;17.15;6.70;;;;;;;4.01;76.91;100190.78;4930290;29;20067;-85
2021/01/14 00:23:29;;;;;;;10.43;6.05;;;;;;;3.97;76.29;100184.75;4926769;29;20066;-85
2021/01/14 00:25:55;;;;;;;15.13;6.15;;;;;;;4.02;76.78;100192.50;4929811;29;20041;-85
2021/01/14 00:28:24;;;;;;;11.88;6.68;;;;;;;4.02;76.29;100198.59;4936526;29;20060;-85
2021/01/14 00:30:51;;;;;;;15.52;7.03;;;;;;;3.99;76.91;100192.56;4923896;29;20092;-85
2021/01/14 00:33:17;;;;;;;14.73;6.97;;;;;;;4.00;76.67;100195.16;4940068;29;20054;-86
2021/01/14 00:35:44;;;;;;;13.57;6.85;;;;;;;4.02;76.84;100195.13;4941428;29;20074;-85
2021/01/14 00:38:10;;;;;;;13.43;6.65;;;;;;;3.99;77.29;100180.34;4922274;29;20040;-85
2021/01/14 00:40:37;;;;;;;13.30;6.43;;;;;;;3.97;76.93;100182.13;4930780;29;20138;-86
2021/01/14 00:43:09;;;;;;;17.33;7.60;;;;;;;3.94;77.45;100189.19;4925085;29;20073;-85
2021/01/14 00:45:37;;;;;;;18.27;7.30;;;;;;;3.92;77.49;100191.88;4930424;29;20052;-85
2021/01/14 00:48:05;;;;;;;12.25;6.93;;;;;;;3.96;77.96;100200.50;4923808;29;20086;-85
2021/01/14 00:50:32;;;;;;;14.77;6.90;;;;;;;3.93;78.08;100205.84;4921914;29;20045;-85
2021/01/14 00:52:59;;;;;;;16.55;7.68;;;;;;;3.96;78.08;100216.22;4904367;29;20048;-85
2021/01/14 00:55:26;;;;;;;12.13;6.90;;;;;;;3.95;78.57;100198.78;4917398;29;20048;-85
2021/01/14 00:57:53;;;;;;;9.57;6.70;;;;;;;3.90;79.10;100216.38;4907388;29;20048;-85
2021/01/14 01:00:22;;;;;;;14.55;6.82;;;;;;;3.87;79.73;100220.78;4917736;29;20052;-85
2021/01/14 01:02:51;;;;;;;13.70;7.45;;;;;;;3.88;79.06;100214.66;4916155;29;20063;-85
2021/01/14 01:05:19;;;;;;;15.98;7.75;;;;;;;3.86;80.18;100226.91;4922613;29;20409;-85
2021/01/14 01:07:54;;;;;;;17.40;8.13;;;;;;;3.84;79.88;100220.84;4907979;29;20059;-85
2021/01/14 01:10:20;;;;;;;13.25;8.00;;;;;;;3.84;80.61;100215.59;4923986;29;20052;-85
2021/01/14 01:12:55;;;;;;;14.32;7.93;;;;;;;3.82;80.08;100233.09;4924696;29;20055;-85
2021/01/14 01:15:23;;;;;;;12.82;7.95;;;;;;;3.80;80.47;100228.78;4915208;29;20067;-84
2021/01/14 01:17:50;;;;;;;14.65;7.93;;;;;;;3.74;80.72;100229.81;4908037;29;20100;-85
2021/01/14 01:20:17;;;;;;;17.25;8.35;;;;;;;3.76;81.27;100238.50;4895536;29;20040;-84
2021/01/14 01:22:43;;;;;;;12.27;8.48;;;;;;;3.73;81.07;100237.69;4909631;29;20057;-84
2021/01/14 01:25:10;;;;;;;16.02;8.55;;;;;;;3.76;80.87;100259.44;4891707;29;20475;-84
2021/01/14 01:27:37;;;;;;;14.68;8.70;;;;;;;3.76;80.82;100262.06;4887964;29;20049;-85
2021/01/14 01:30:06;;;;;;;12.63;8.77;;;;;;;3.70;81.16;100254.34;4898058;29;20598;-84
2021/01/14 01:32:33;;;;;;;14.45;7.93;;;;;;;3.74;81.39;100266.47;4903035;29;20049;-84
2021/01/14 01:35:00;;;;;;;15.15;8.73;;;;;;;3.78;81.28;100268.13;4897808;29;20063;-85
2021/01/14 01:37:29;;;;;;;15.43;8.43;;;;;;;3.72;80.39;100283.09;4877221;29;20057;-86
2021/01/14 01:39:55;;;;;;;16.77;8.95;;;;;;;3.65;81.27;100282.34;4901068;29;20067;-86
2021/01/14 01:42:22;;;;;;;15.95;8.57;;;;;;;3.60;81.63;100276.38;4906848;29;20076;-85
2021/01/14 01:44:48;;;;;;;14.52;6.70;;;;;;;3.55;80.14;100280.84;4899919;29;20053;-85
2021/01/14 01:47:15;;;;;;;10.75;5.63;;;;;;;3.52;77.59;100278.28;4911620;29;20573;-85
2021/01/14 01:49:42;;;;;;;8.93;5.13;;;;;;;3.53;74.82;100280.88;4892817;29;20064;-86
2021/01/14 01:52:08;;;;;;;10.93;5.28;;;;;;;3.52;74.63;100284.38;4909349;29;20052;-85
2021/01/14 01:54:35;;;;;;;9.23;4.65;;;;;;;3.54;73.24;100297.44;4898603;29;20053;-85
2021/01/14 01:57:04;;;;;;;9.25;3.70;;;;;;;3.53;71.59;100287.84;4912390;29;20075;-85
2021/01/14 01:59:33;;;;;;;8.82;4.20;;;;;;;3.51;70.68;100300.09;4909546;29;20063;-86
2021/01/14 02:02:21;;;;;;;9.48;3.45;;;;;;;3.51;69.98;100307.97;4913877;29;20095;-85
2021/01/14 02:04:49;;;;;;;10.05;3.75;;;;;;;3.52;68.49;100307.06;4917846;29;20036;-85
2021/01/14 02:07:30;;;;;;;7.47;3.50;;;;;;;3.58;67.16;100319.19;4908155;29;20065;-86
2021/01/14 02:09:57;;;;;;;6.32;2.85;;;;;;;3.53;67.40;100320.13;4901833;29;20498;-86
2021/01/14 02:12:36;;;;;;;8.30;3.42;;;;;;;3.46;66.92;100312.44;4898328;29;20409;-85
2021/01/14 02:15:03;;;;;;;6.30;2.97;;;;;;;3.56;66.50;100324.44;4899897;29;20052;-86
2021/01/14 02:17:30;;;;;;;6.47;3.00;;;;;;;3.56;66.59;100321.84;4902679;29;20128;-85
2021/01/14 02:20:00;;;;;;;10.43;3.65;;;;;;;3.51;66.26;100327.16;4900370;29;20058;-85
2021/01/14 02:22:37;;;;;;;6.63;3.25;;;;;;;3.51;65.85;100331.53;4889436;29;20060;-85
2021/01/14 02:25:07;;;;;;;5.97;2.47;;;;;;;3.49;65.60;100330.69;4900175;29;20146;-85
2021/01/14 02:27:36;;;;;;;7.53;2.65;;;;;;;3.44;65.13;100329.94;4898090;29;20083;-85
2021/01/14 02:30:07;;;;;;;4.35;1.80;;;;;;;3.42;63.90;100326.47;4900257;29;20055;-85
2021/01/14 02:32:33;;;;;;;5.53;2.20;;;;;;;3.41;63.47;100329.97;4909870;29;20052;-85
2021/01/14 02:34:59;;;;;;;5.20;2.53;;;;;;;3.38;63.04;100330.03;4893821;29;20060;-86
2021/01/14 02:37:26;;;;;;;5.30;2.08;;;;;;;3.36;63.45;100327.44;4909016;29;20052;-85
2021/01/14 02:39:52;;;;;;;6.88;2.35;;;;;;;3.37;63.73;100320.47;4907971;29;20045;-85
2021/01/14 02:42:19;;;;;;;7.43;2.22;;;;;;;3.37;63.75;100328.31;4905772;29;20379;-85
2021/01/14 02:44:45;;;;;;;7.55;2.13;;;;;;;3.38;64.29;100333.50;4905396;29;20049;-84
2021/01/14 02:47:13;;;;;;;7.10;2.20;;;;;;;3.37;63.47;100329.16;4911790;29;20063;-84
2021/01/14 02:50:01;;;;;;;6.55;2.28;;;;;;;3.39;63.88;100345.72;4883332;29;20202;-86
2021/01/14 02:52:34;;;;;;;7.07;2.42;;;;;;;3.31;64.04;100331.03;4894710;29;20072;-85
2021/01/14 02:55:03;;;;;;;5.32;2.22;;;;;;;3.32;63.83;100346.69;4887275;29;20055;-86
2021/01/14 02:57:31;;;;;;;7.95;2.35;;;;;;;3.32;62.75;100346.69;4897717;29;20056;-83
2021/01/14 03:00:00;;;;;;;6.60;2.30;;;;;;;3.32;62.73;100351.06;4890183;29;20056;-83
2021/01/14 03:02:30;;;;;;;7.47;2.20;;;;;;;3.28;63.05;100341.56;4903555;29;20059;-83
2021/01/14 03:04:56;;;;;;;6.78;2.30;;;;;;;3.27;63.01;100361.66;4891254;29;20055;-85
2021/01/14 03:07:23;;;;;;;5.90;2.00;;;;;;;3.26;62.05;100365.16;4914074;29;20151;-84
2021/01/14 03:09:52;;;;;;;6.38;2.08;;;;;;;3.27;61.70;100368.63;4910885;29;20064;-85
2021/01/14 03:12:18;;;;;;;6.60;2.30;;;;;;;3.25;62.05;100375.66;4910449;29;20055;-84
2021/01/14 03:14:45;;;;;;;4.35;2.00;;;;;;;3.21;62.52;100369.59;4896522;29;20045;-85
2021/01/14 03:17:11;;;;;;;4.55;1.70;;;;;;;3.17;62.39;100362.69;4907124;29;20048;-84
2021/01/14 03:19:37;;;;;;;8.13;2.00;;;;;;;3.17;62.35;100374.00;4917538;29;20123;-84
2021/01/14 03:22:04;;;;;;;3.92;2.03;;;;;;;3.15;62.50;100383.63;4896005;29;20087;-85
2021/01/14 03:24:30;;;;;;;7.05;2.25;;;;;;;3.15;61.97;100385.38;4904564;29;20057;-85
2021/01/14 03:26:57;;;;;;;5.53;1.98;;;;;;;3.12;62.67;100385.47;4920937;29;20092;-84
2021/01/14 03:29:23;;;;;;;3.38;1.60;;;;;;;3.12;62.19;100383.72;4913422;29;20057;-84
2021/01/14 03:31:50;;;;;;;10.80;2.08;;;;;;;3.12;61.88;100404.66;4905259;29;20409;-83
2021/01/14 03:34:16;;;;;;;7.30;1.55;;;;;;;3.07;61.71;100387.28;4903375;29;20523;-86
2021/01/14 03:37:00;;;;;;;4.85;1.77;;;;;;;3.08;61.64;100400.34;4897009;29;20064;-83
2021/01/14 03:39:29;;;;;;;8.52;2.03;;;;;;;3.07;61.38;100400.38;4893044;29;20060;-85
2021/01/14 03:41:57;;;;;;;4.90;1.50;;;;;;;3.02;61.88;100410.03;4877584;29;20052;-85
2021/01/14 03:44:24;;;;;;;6.30;1.67;;;;;;;2.98;61.81;100408.38;4901969;29;20409;-84
2021/01/14 03:46:51;;;;;;;6.13;1.40;;;;;;;2.92;61.49;100411.94;4902437;29;20433;-85
2021/01/14 03:49:18;;;;;;;3.80;1.30;;;;;;;2.96;60.60;100420.59;4903178;29;20436;-85
2021/01/14 03:51:46;;;;;;;5.70;1.20;;;;;;;2.94;61.04;100425.88;4894071;29;20590;-84
2021/01/14 03:54:13;;;;;;;7.60;1.52;;;;;;;2.93;60.61;100423.25;4913453;29;20048;-84
2021/01/14 03:56:41;;;;;;;3.00;1.27;;;;;;;2.85;60.92;100412.03;4911976;29;20304;-83
2021/01/14 03:59:09;;;;;;;5.25;1.40;;;;;;;2.86;60.43;100414.63;4903959;29;20161;-85
2021/01/14 04:01:37;;;;;;;6.55;1.30;;;;;;;2.84;60.87;100413.78;4902568;29;20051;-85
2021/01/14 04:04:03;;;;;;;6.43;1.63;;;;;;;2.75;60.65;100409.59;4903676;29;20426;-85
2021/01/14 04:06:37;;;;;;;6.50;1.20;;;;;;;2.75;61.00;100413.94;4883714;29;20057;-85
2021/01/14 04:09:05;;;;;;;4.28;1.10;;;;;;;2.71;61.18;100417.47;4884196;29;20072;-85
2021/01/14 04:11:33;;;;;;;7.85;1.60;;;;;;;2.66;61.34;100417.56;4904494;29;20091;-85
2021/01/14 04:14:00;;;;;;;6.65;1.27;;;;;;;2.64;61.99;100421.97;4900565;29;20063;-85
2021/01/14 04:16:27;;;;;;;6.32;1.25;;;;;;;2.64;61.28;100414.13;4904098;29;20148;-85
2021/01/14 04:18:53;;;;;;;4.38;1.42;;;;;;;2.61;61.27;100418.50;4902827;29;20048;-85
2021/01/14 04:21:19;;;;;;;4.93;1.20;;;;;;;2.62;61.27;100417.63;4888059;29;20048;-85
2021/01/14 04:23:46;;;;;;;4.28;1.30;;;;;;;2.64;61.40;100410.63;4902209;29;20056;-85
2021/01/14 04:26:16;;;;;;;3.97;1.02;;;;;;;2.63;61.34;100424.59;4899943;29;20070;-85
2021/01/14 04:28:43;;;;;;;5.90;1.20;;;;;;;2.60;62.17;100435.09;4899567;29;20048;-86
2021/01/14 04:31:12;;;;;;;5.05;1.00;;;;;;;2.55;61.71;100442.09;4905717;29;20064;-86
2021/01/14 04:33:57;;;;;;;6.43;1.30;;;;;;;2.55;62.31;100442.09;4888917;29;20052;-86
2021/01/14 04:36:24;;;;;;;4.65;1.35;;;;;;;2.53;62.49;100436.91;4906319;29;20054;-86
2021/01/14 04:38:50;;;;;;;4.78;1.00;;;;;;;2.55;62.62;100442.97;4916363;29;20048;-85
2021/01/14 04:41:19;;;;;;;4.47;0.90;;;;;;;2.54;62.45;100433.41;4913249;29;20136;-86
2021/01/14 04:43:48;;;;;;;4.35;0.98;;;;;;;2.56;62.80;100433.38;4887299;29;20056;-85
2021/01/14 04:46:16;;;;;;;6.10;1.55;;;;;;;2.53;62.14;100426.44;4922297;29;20048;-84
2021/01/14 04:48:47;;;;;;;4.45;1.17;;;;;;;2.56;62.73;100422.94;4918510;29;20056;-85
2021/01/14 04:51:19;;;;;;;2.75;0.93;;;;;;;2.57;62.38;100429.88;4913218;29;20049;-85
2021/01/14 04:53:49;;;;;;;4.32;1.00;;;;;;;2.54;63.03;100443.00;4914752;29;20093;-85
2021/01/14 04:56:19;;;;;;;5.45;1.20;;;;;;;2.46;62.95;100425.69;4916027;29;20060;-85
2021/01/14 04:58:46;;;;;;;6.43;1.38;;;;;;;2.44;63.03;100437.91;4925717;29;20063;-86
2021/01/14 05:01:24;;;;;;;5.32;1.20;;;;;;;2.40;63.77;100430.97;4917107;29;20048;-85
2021/01/14 05:03:53;;;;;;;7.88;1.60;;;;;;;2.46;63.19;100446.59;4917987;29;20072;-84
2021/01/14 05:06:24;;;;;;;6.53;1.27;;;;;;;2.45;63.17;100442.25;4893088;29;20053;-84
2021/01/14 05:09:06;;;;;;;7.00;1.20;;;;;;;2.46;62.73;100448.34;4915671;29;20049;-85
2021/01/14 05:11:42;;;;;;;4.97;1.20;;;;;;;2.44;63.17;100437.03;4910532;29;20048;-86
2021/01/14 05:14:09;;;;;;;5.75;1.27;;;;;;;2.39;63.19;100426.63;4904335;29;20028;-83
2021/01/14 05:16:35;;;;;;;4.25;0.88;;;;;;;2.39;63.23;100426.63;4884316;29;20056;-84
2021/01/14 05:19:02;;;;;;;3.58;1.10;;;;;;;2.37;62.95;100436.25;4893590;29;20093;-84
2021/01/14 05:21:33;;;;;;;2.90;1.38;;;;;;;2.40;63.47;100440.56;4912156;29;20064;-84
2021/01/14 05:24:10;;;;;;;4.13;1.10;;;;;;;2.43;63.67;100459.69;4908554;29;20061;-85
2021/01/14 05:26:39;;;;;;;4.78;1.45;;;;;;;2.40;62.75;100445.78;4906119;29;20516;-85
2021/01/14 05:29:15;;;;;;;3.88;0.93;;;;;;;2.42;63.82;100451.88;4885340;29;20080;-84
2021/01/14 05:31:47;;;;;;;5.07;1.30;;;;;;;2.37;62.51;100438.00;4904540;29;20052;-84
2021/01/14 05:34:14;;;;;;;7.95;1.40;;;;;;;2.35;63.29;100453.72;4892983;29;23006;-84
2021/01/14 05:36:52;;;;;;;6.60;1.45;;;;;;;2.36;63.10;100462.41;4890253;29;20064;-86
2021/01/14 05:39:21;;;;;;;6.95;1.35;;;;;;;2.28;63.27;100457.28;4905241;29;20053;-84
2021/01/14 05:41:49;;;;;;;6.43;1.55;;;;;;;2.35;63.16;100464.16;4905474;29;20063;-84
2021/01/14 05:44:15;;;;;;;5.55;1.50;;;;;;;2.35;62.91;100458.06;4914459;29;20059;-84
2021/01/14 05:46:42;;;;;;;7.93;1.38;;;;;;;2.28;63.58;100453.78;4917981;29;20055;-84
2021/01/14 05:49:10;;;;;;;4.70;1.35;;;;;;;2.26;63.08;100453.81;4914454;29;20064;-83
2021/01/14 05:51:37;;;;;;;5.78;0.98;;;;;;;2.26;63.36;100461.66;4918873;29;20064;-86
2021/01/14 05:54:08;;;;;;;6.97;1.67;;;;;;;2.27;63.57;100467.75;4908624;29;20055;-85
2021/01/14 05:56:50;;;;;;;5.25;1.15;;;;;;;2.29;64.25;100473.81;4909264;29;20191;-84
2021/01/14 05:59:18;;;;;;;5.03;1.10;;;;;;;2.31;63.51;100467.69;4912420;29;20052;-84
2021/01/14 06:01:56;;;;;;;5.95;1.15;;;;;;;2.33;63.41;100476.38;4918588;29;20071;-83
2021/01/14 06:04:26;;;;;;;6.80;1.15;;;;;;;2.29;63.23;100485.13;4914376;29;20068;-84
2021/01/14 06:06:54;;;;;;;5.70;1.10;;;;;;;2.28;63.54;100487.75;4912697;29;20049;-83
2021/01/14 06:09:22;;;;;;;6.60;1.00;;;;;;;2.26;63.62;100479.94;4911662;29;20053;-84
2021/01/14 06:11:51;;;;;;;2.85;1.52;;;;;;;2.24;63.84;100470.38;4908162;29;20055;-83
2021/01/14 06:14:31;;;;;;;4.43;1.27;;;;;;;2.27;64.39;100492.13;4903163;29;20073;-83
2021/01/14 06:17:00;;;;;;;8.13;1.38;;;;;;;2.25;63.91;100482.56;4919005;29;20049;-85
2021/01/14 06:19:29;;;;;;;4.60;1.10;;;;;;;2.25;64.05;100472.97;4912155;29;20063;-85
2021/01/14 06:21:57;;;;;;;8.68;1.40;;;;;;;2.23;64.07;100479.97;4909753;29;20060;-85
2021/01/14 06:24:37;;;;;;;5.85;1.30;;;;;;;2.20;63.84;100480.03;4911748;29;20088;-84
2021/01/14 06:27:05;;;;;;;6.25;1.38;;;;;;;2.21;64.62;100492.19;4893237;29;20043;-85
2021/01/14 06:29:43;;;;;;;6.07;1.20;;;;;;;2.22;63.96;100501.75;4914889;29;20052;-85
2021/01/14 06:32:18;;;;;;;6.03;1.35;;;;;;;2.22;64.01;100493.91;4913004;29;20063;-84
2021/01/14 06:34:49;;;;;;;6.97;1.50;;;;;;;2.22;63.76;100499.13;4915286;29;20585;-85
2021/01/14 06:37:19;;;;;;;4.65;1.10;;;;;;;2.19;64.20;100499.19;4920758;29;20048;-84
2021/01/14 06:39:48;;;;;;;2.45;1.20;;;;;;;2.19;64.38;100514.88;4919364;29;20056;-86
2021/01/14 06:42:19;;;;;;;5.78;1.40;;;;;;;2.19;64.27;100517.50;4915827;29;20048;-84
2021/01/14 06:44:54;;;;;;;4.47;1.30;;;;;;;2.17;64.41;100519.25;4917394;29;20151;-85
2021/01/14 06:47:42;;;;;;;7.63;1.50;;;;;;;2.15;64.03;100531.47;4909766;29;20076;-86
2021/01/14 06:50:27;;;;;;;9.43;1.67;;;;;;;2.11;64.41;100524.53;4902125;29;20057;-84
2021/01/14 06:53:02;;;;;;;3.30;1.27;;;;;;;2.13;64.92;100541.06;4907269;29;20055;-84
2021/01/14 06:55:36;;;;;;;3.30;1.20;;;;;;;2.11;64.60;100540.19;4906421;29;20053;-83
2021/01/14 06:58:07;;;;;;;3.22;1.15;;;;;;;2.08;65.08;100537.63;4911237;29;20060;-84
2021/01/14 07:00:43;;;;;;;5.78;1.50;;;;;;;2.06;65.01;100539.38;4917777;29;20039;-84
2021/01/14 07:03:13;;;;;;;7.07;1.35;;;;;;;2.11;64.69;100551.50;4922540;29;20033;-83
2021/01/14 07:05:53;;;;;;;4.40;1.13;;;;;;;2.13;65.03;100556.72;4923864;29;20112;-84
2021/01/14 07:08:19;;;;;;;6.13;1.30;;;;;;;2.15;64.82;100554.09;4904000;29;20053;-84
2021/01/14 07:11:07;;;;;;;6.18;1.40;;;;;;;2.15;64.44;100556.72;4917944;29;20048;-84
2021/01/14 07:13:40;;;;;;;6.78;1.58;;;;;;;2.18;64.31;100551.47;4899621;29;20104;-85
2021/01/14 07:16:08;;;;;;;4.97;1.83;;;;;;;2.16;64.25;100556.69;4925320;29;20085;-84
2021/01/14 07:18:37;;;;;;;5.40;1.55;;;;;;;2.14;65.29;100565.44;4897956;29;20049;-85
2021/01/14 07:21:19;;;;;;;6.20;1.50;;;;;;;2.15;65.46;100569.78;4901647;29;20063;-85
2021/01/14 07:23:54;;;;;;;4.28;1.48;;;;;;;2.17;65.19;100570.63;4900513;29;20056;-84
2021/01/14 07:26:22;;;;;;;6.25;1.42;;;;;;;2.13;65.63;100567.19;4897522;29;20045;-86
2021/01/14 07:28:51;;;;;;;4.22;1.70;;;;;;;2.12;65.14;100586.34;4897713;29;20278;-84
2021/01/14 07:31:23;;;;;;;4.68;1.60;;;;;;;2.12;65.04;100588.94;4897405;29;20169;-84
2021/01/14 07:33:52;;;;;;;3.60;1.50;;;;;;;2.13;64.52;100595.03;4901809;29;20052;-84
2021/01/14 07:36:26;;;;;;;6.32;1.90;;;;;;;2.10;65.15;100583.75;4887395;29;20079;-85
2021/01/14 07:38:58;;;;;;;5.00;1.48;;;;;;;2.12;65.41;100599.41;4903259;29;20052;-86
2021/01/14 07:41:55;;;;;;;6.07;1.67;;;;;;;2.13;64.47;100606.34;4889088;29;20048;-85
2021/01/14 07:44:23;;;;;;;8.77;2.15;;;;;;;2.15;64.88;100612.44;4902045;29;20091;-85
2021/01/14 07:46:50;;;;;;;7.07;1.60;;;;;;;2.13;65.39;100608.09;4901529;29;20052;-85
2021/01/14 07:49:28;;;;;;;6.43;2.25;;;;;;;2.38;67.54;100609.59;4900481;29;20798;-86
2021/01/14 07:52:01;;;;;;;5.38;1.58;;;;;;;2.54;66.82;100612.91;4902698;29;20529;-85
2021/01/14 07:54:30;;;;;;;6.40;2.13;;;;;;;2.55;63.92;100631.19;4900155;29;20055;-85
2021/01/14 07:57:02;;;;;;;4.20;1.48;;;;;;;2.52;64.13;100633.84;4907490;29;20451;-84
2021/01/14 07:59:29;;;;;;;4.20;1.48;;;;;;;2.45;64.85;100638.28;4910942;29;20088;-85
2021/01/14 08:02:07;;;;;;;7.78;2.20;;;;;;;2.47;64.44;100638.25;4904132;29;20044;-85
2021/01/14 08:04:48;;;;;;;3.60;1.80;;;;;;;2.41;63.51;100639.19;4894853;29;20080;-85
2021/01/14 08:07:24;;;;;;;8.35;2.10;;;;;;;2.33;63.92;100638.41;4910728;29;20031;-86
2021/01/14 08:09:52;;;;;;;6.88;1.77;;;;;;;2.25;64.51;100637.59;4916353;29;20060;-84
2021/01/14 08:12:21;;;;;;;7.75;1.98;;;;;;;2.17;64.82;100626.34;4900010;29;20058;-84
2021/01/14 08:14:50;;;;;;;7.47;2.03;;;;;;;2.27;64.71;100648.03;4914099;29;20506;-85
2021/01/14 08:17:24;;;;;;;9.18;2.20;;;;;;;2.31;64.29;100649.75;4907598;29;20471;-85
2021/01/14 08:19:55;;;;;;;4.20;1.83;;;;;;;2.35;64.56;100656.69;4905011;29;20052;-87
2021/01/14 08:22:21;;;;;;;7.20;2.25;;;;;;;2.33;63.98;100661.91;4904200;29;20048;-85
2021/01/14 08:24:59;;;;;;;7.18;2.05;;;;;;;2.35;63.36;100667.13;4902817;29;20380;-86
2021/01/14 08:27:36;;;;;;;3.95;2.20;;;;;;;2.36;64.30;100655.81;4903844;29;20133;-85
2021/01/14 08:30:15;;;;;;;11.68;2.25;;;;;;;2.35;64.71;100660.16;4905114;29;20081;-84
2021/01/14 08:33:00;;;;;;;3.95;2.00;;;;;;;2.36;64.61;100655.81;4908769;29;20078;-86
2021/01/14 08:35:34;;;;;;;6.88;2.00;;;;;;;2.42;64.39;100667.06;4910357;29;20056;-86
2021/01/14 08:38:02;;;;;;;7.50;1.90;;;;;;;2.45;64.59;100679.22;4900369;29;20052;-86
2021/01/14 08:40:32;;;;;;;6.82;1.95;;;;;;;2.43;63.47;100689.69;4906310;29;20066;-85
2021/01/14 08:43:16;;;;;;;7.15;2.22;;;;;;;2.42;63.98;100692.31;4915816;29;20047;-85
2021/01/14 08:45:56;;;;;;;3.50;1.75;;;;;;;2.46;64.50;100692.28;4894577;29;20059;-85
2021/01/14 08:48:30;;;;;;;6.95;1.90;;;;;;;2.49;64.03;100691.41;4914910;29;20044;-84
2021/01/14 08:51:00;;;;;;;6.43;1.77;;;;;;;2.52;63.81;100695.72;4914611;29;20040;-85
2021/01/14 08:53:37;;;;;;;5.10;1.90;;;;;;;2.48;64.24;100694.88;4911816;29;20139;-85
2021/01/14 08:56:09;;;;;;;6.38;2.10;;;;;;;2.48;63.88;100715.81;4917233;29;20044;-84
2021/01/14 08:58:47;;;;;;;3.92;1.70;;;;;;;2.52;63.76;100708.81;4903164;29;20060;-85
2021/01/14 09:01:22;;;;;;;7.28;2.20;;;;;;;2.50;63.59;100713.19;4906389;29;21069;-85
2021/01/14 09:03:53;;;;;;;7.07;2.33;;;;;;;2.49;64.64;100716.66;4903775;29;20055;-84
2021/01/14 09:06:39;;;;;;;7.35;2.22;;;;;;;2.53;64.30;100715.72;4909692;29;20072;-84
2021/01/14 09:09:13;;;;;;;4.15;1.95;;;;;;;2.59;64.09;100719.16;4907267;29;20044;-84
2021/01/14 09:11:40;;;;;;;5.97;2.13;;;;;;;2.67;63.31;100732.19;4908882;29;20049;-84
2021/01/14 09:14:22;;;;;;;9.65;2.30;;;;;;;2.67;63.89;100732.19;4907600;29;20119;-85
2021/01/14 09:16:49;;;;;;;5.70;2.30;;;;;;;2.67;64.21;100740.03;4914845;29;20102;-84
2021/01/14 09:19:18;;;;;;;6.43;2.00;;;;;;;2.73;63.84;100732.97;4905057;29;20191;-85
2021/01/14 09:21:47;;;;;;;8.65;2.13;;;;;;;2.79;63.58;100737.28;4909460;29;20147;-84
2021/01/14 09:24:15;;;;;;;8.65;1.90;;;;;;;2.87;62.33;100740.69;4894822;29;20113;-86
2021/01/14 09:26:50;;;;;;;5.80;2.42;;;;;;;2.86;62.93;100735.47;4917040;29;20061;-84
2021/01/14 09:29:36;;;;;;;8.32;2.30;;;;;;;2.93;62.96;100742.38;4903366;29;20089;-85
2021/01/14 09:32:13;;;;;;;6.40;2.15;;;;;;;2.99;62.35;100745.78;4920496;29;20067;-84
2021/01/14 09:34:40;;;;;;;3.63;1.83;;;;;;;2.93;61.79;100756.31;4915744;29;20032;-85
2021/01/14 09:42:51;;;;;;;;;;;;;;;2.98;60.91;100770.25;4893223;29;20071;-86
2021/01/14 09:45:25;;;;;;;5.50;1.60;;;;;;;2.98;61.57;100772.84;4904026;29;19931;-85
2021/01/14 09:48:00;;;;;;;5.18;1.52;;;;;;;3.03;61.96;100773.66;4897443;29;20049;-84
2021/01/14 09:50:33;;;;;;;3.50;1.67;;;;;;;3.11;61.21;100774.44;4904281;29;20045;-87
2021/01/14 09:53:08;;;;;;;6.00;1.90;;;;;;;3.21;61.29;100780.44;4901895;29;20033;-86
2021/01/14 09:55:45;;;;;;;7.18;2.13;;;;;;;3.26;61.57;100768.19;4893064;29;20053;-84
2021/01/14 09:58:19;;;;;;;8.00;2.20;;;;;;;3.28;59.92;100768.16;4888811;29;20060;-84
2021/01/14 10:00:48;;;;;;;7.38;1.95;;;;;;;3.32;59.78;100796.03;4901314;29;20073;-86
2021/01/14 10:03:20;;;;;;;3.92;1.88;;;;;;;3.35;61.10;100801.22;4912093;29;20036;-88
2021/01/14 10:06:05;;;;;;;7.40;2.28;;;;;;;3.40;60.11;100795.06;4896161;29;20069;-85
2021/01/14 10:08:37;;;;;;;6.77;2.27;;;;;;;3.44;60.73;100796.78;4890903;29;20064;-86
2021/01/14 10:11:05;;;;;;;4.90;2.10;;;;;;;3.40;60.09;100789.84;4882219;29;20053;-85
2021/01/14 10:13:32;;;;;;;6.93;1.85;;;;;;;3.44;58.13;100803.75;4883444;29;20049;-85
2021/01/14 10:16:10;;;;;;;7.97;1.98;;;;;;;3.42;58.58;100813.38;4879914;29;20045;-84
2021/01/14 10:18:36;;;;;;;4.95;1.70;;;;;;;3.41;58.36;100816.88;4877772;29;20089;-86
2021/01/14 10:21:04;;;;;;;8.20;2.17;;;;;;;3.33;59.48;100813.47;4878957;29;20041;-84
2021/01/14 10:23:32;;;;;;;6.30;1.98;;;;;;;3.33;59.50;100818.69;4870699;29;20059;-84
2021/01/14 10:26:03;;;;;;;8.57;2.40;;;;;;;3.33;60.79;100818.69;4891949;29;20132;-85
2021/01/14 10:28:43;;;;;;;14.00;2.55;;;;;;;3.35;60.21;100817.81;4887416;29;20049;-86
2021/01/14 10:31:10;;;;;;;8.23;2.10;;;;;;;3.30;59.08;100819.63;4883224;29;20052;-85
2021/01/14 10:33:36;;;;;;;6.45;1.65;;;;;;;3.29;59.46;100824.88;4886993;29;20059;-84
2021/01/14 10:36:03;;;;;;;6.32;2.30;;;;;;;3.34;59.55;100829.16;4869827;29;20053;-83
2021/01/14 10:39:01;;;;;;;5.22;1.83;;;;;;;3.35;59.75;100819.56;4893753;29;20057;-87
2021/01/14 10:41:29;;;;;;;6.30;2.22;;;;;;;3.43;60.00;100822.97;4890062;29;20057;-88
2021/01/14 10:44:05;;;;;;;6.57;2.53;;;;;;;3.47;59.06;100819.41;4891407;29;20144;-86
2021/01/14 10:46:36;;;;;;;6.68;1.70;;;;;;;3.44;58.60;100824.72;4893745;29;20057;-87
2021/01/14 10:49:16;;;;;;;2.50;1.52;;;;;;;3.45;58.72;100829.06;4880993;29;20076;-87
2021/01/14 10:51:43;;;;;;;4.95;2.10;;;;;;;3.38;58.27;100828.25;4891037;29;20052;-86
2021/01/14 10:54:36;;;;;;;4.93;1.60;;;;;;;3.40;59.29;100828.22;4894085;29;20121;-85
2021/01/14 10:57:06;;;;;;;2.25;1.60;;;;;;;3.23;59.04;100820.56;4887259;29;20060;-86
2021/01/14 10:59:39;;;;;;;5.47;2.05;;;;;;;3.14;59.28;100824.16;4883964;29;20395;-87
2021/01/14 11:02:32;;;;;;;4.68;1.60;;;;;;;3.18;60.23;100823.22;4892446;29;20097;-86
2021/01/14 11:05:09;;;;;;;6.68;1.92;;;;;;;3.25;60.22;100815.31;4889707;29;20053;-87
2021/01/14 11:08:06;;;;;;;5.82;1.75;;;;;;;3.37;59.91;100820.41;4890758;29;20094;-85
2021/01/14 11:10:36;;;;;;;6.60;1.73;;;;;;;3.44;59.89;100816.84;4889147;29;20495;-85
2021/01/14 11:13:16;;;;;;;7.25;2.22;;;;;;;3.51;59.91;100813.25;4894441;29;20117;-84
2021/01/14 11:15:54;;;;;;;6.28;1.90;;;;;;;3.47;58.57;100814.16;4890845;29;20077;-86
2021/01/14 11:18:23;;;;;;;5.90;1.83;;;;;;;3.45;58.97;100797.66;4893284;29;20057;-85
2021/01/14 11:20:50;;;;;;;4.85;2.00;;;;;;;3.32;59.12;100794.28;4902517;29;20067;-85
2021/01/14 11:23:17;;;;;;;7.45;2.05;;;;;;;3.34;59.65;100800.34;4882259;29;20076;-85
2021/01/14 11:26:03;;;;;;;10.88;4.93;;;;;;;3.41;60.04;100790.69;4894709;29;20053;-84
2021/01/14 11:28:40;;;;;;;7.25;2.17;;;;;;;3.46;60.40;100775.81;4892382;29;20053;-85
2021/01/14 11:31:26;;;;;;;7.95;3.10;;;;;;;3.56;59.94;100784.41;4882228;29;20049;-85
2021/01/14 11:33:55;;;;;;;5.97;2.30;;;;;;;3.62;59.71;100792.22;4899867;29;20063;-85
2021/01/14 11:36:24;;;;;;;2.35;1.48;;;;;;;3.62;58.95;100779.94;4907768;29;20045;-84
2021/01/14 11:38:53;;;;;;;7.32;2.15;;;;;;;3.55;58.56;100770.47;4920882;29;20142;-85
2021/01/14 11:41:21;;;;;;;7.15;2.33;;;;;;;3.56;59.70;100774.81;4903612;29;20074;-85
2021/01/14 11:43:49;;;;;;;6.60;2.00;;;;;;;3.54;59.72;100768.72;4904495;29;20105;-86
2021/01/14 11:46:21;;;;;;;8.10;2.50;;;;;;;3.55;60.41;100766.97;4897081;29;20045;-86
2021/01/14 11:48:47;;;;;;;;;;;;;;;3.63;59.37;100760.72;4898407;29;20077;-84
2021/01/14 11:51:13;;;;;;;3.22;1.67;;;;;;;3.63;60.34;100765.97;4906764;29;20038;-85
2021/01/14 11:53:43;;;;;;;5.82;2.33;;;;;;;3.60;60.27;100758.19;4888127;29;20053;-85
2021/01/14 11:56:09;;;;;;;4.50;2.00;;;;;;;3.58;59.53;100752.09;4893479;29;20052;-81